createdAt,value
2018-04-06T00:01:25.339Z,3.50
2018-04-06T00:03:54.637Z,4.03
2018-04-06T00:06:23.865Z,3.67
2018-04-06T00:08:53.161Z,4.47
2018-04-06T00:11:22.430Z,3.70
2018-04-06T00:13:51.658Z,3.50
2018-04-06T00:16:20.859Z,3.57
2018-04-06T00:18:50.104Z,3.20
2018-04-06T00:21:19.332Z,4.40
2018-04-06T00:23:48.592Z,4.17
2018-04-06T00:26:17.928Z,3.90
2018-04-06T00:28:47.173Z,3.30
2018-04-06T00:31:16.469Z,3.70
2018-04-06T00:33:45.704Z,4.17
2018-04-06T00:36:14.929Z,4.37
2018-04-06T00:38:44.156Z,3.70
2018-04-06T00:41:13.370Z,3.90
2018-04-06T00:43:42.609Z,3.60
2018-04-06T00:46:11.836Z,4.10
2018-04-06T00:48:41.126Z,3.93
2018-04-06T00:51:11.307Z,3.97
2018-04-06T00:53:46.413Z,4.10
2018-04-06T00:56:16.636Z,3.33
2018-04-06T00:58:45.880Z,3.80
2018-04-06T01:01:15.446Z,3.67
2018-04-06T01:03:44.668Z,3.80
2018-04-06T01:06:14.022Z,4.37
2018-04-06T01:08:43.254Z,4.00
2018-04-06T01:11:12.519Z,3.57
2018-04-06T01:13:41.741Z,3.93
2018-04-06T01:16:10.941Z,4.03
2018-04-06T01:18:40.146Z,4.30
2018-04-06T01:21:09.378Z,3.60
2018-04-06T01:23:38.588Z,3.90
2018-04-06T01:26:07.805Z,4.30
2018-04-06T01:28:37.102Z,4.03
2018-04-06T01:31:06.376Z,3.87
2018-04-06T01:33:35.608Z,4.10
2018-04-06T01:36:04.853Z,3.63
2018-04-06T01:38:34.069Z,4.40
2018-04-06T01:41:03.350Z,5.03
2018-04-06T01:43:32.636Z,4.33
2018-04-06T01:46:01.994Z,5.03
2018-04-06T01:48:31.322Z,4.63
2018-04-06T01:51:00.582Z,4.03
2018-04-06T01:53:29.870Z,3.87
2018-04-06T01:55:59.145Z,3.83
2018-04-06T01:58:28.408Z,3.70
2018-04-06T02:00:57.642Z,3.90
2018-04-06T02:03:26.845Z,4.03
2018-04-06T02:05:56.148Z,4.40
2018-04-06T02:08:25.432Z,4.87
2018-04-06T02:10:54.644Z,4.60
2018-04-06T02:13:23.854Z,3.80
2018-04-06T02:15:53.089Z,4.17
2018-04-06T02:18:22.285Z,4.00
2018-04-06T02:20:51.559Z,4.20
2018-04-06T02:23:20.791Z,4.47
2018-04-06T02:25:50.054Z,4.47
2018-04-06T02:28:19.295Z,4.27
2018-04-06T02:30:48.518Z,3.97
2018-04-06T02:33:17.741Z,4.50
2018-04-06T02:35:47.113Z,3.63
2018-04-06T02:38:16.356Z,4.63
2018-04-06T02:40:45.675Z,4.80
2018-04-06T02:43:14.906Z,6.43
2018-04-06T02:45:44.147Z,4.13
2018-04-06T02:48:13.404Z,3.80
2018-04-06T02:50:42.678Z,4.40
2018-04-06T02:53:11.902Z,4.90
2018-04-06T02:55:41.156Z,4.00
2018-04-06T02:58:10.375Z,4.30
2018-04-06T03:00:39.696Z,4.40
2018-04-06T03:03:08.917Z,3.60
2018-04-06T03:05:38.142Z,4.07
2018-04-06T03:08:07.482Z,4.80
2018-04-06T03:10:36.722Z,3.80
2018-04-06T03:13:05.984Z,3.90
2018-04-06T03:15:35.192Z,4.43
2018-04-06T03:18:04.530Z,4.20
2018-04-06T03:20:33.806Z,4.37
2018-04-06T03:23:03.083Z,4.00
2018-04-06T03:25:32.287Z,4.43
2018-04-06T03:28:01.624Z,4.03
2018-04-06T03:30:30.862Z,4.23
2018-04-06T03:33:00.130Z,4.03
2018-04-06T03:35:29.422Z,3.97
2018-04-06T03:37:58.679Z,4.40
2018-04-06T03:40:27.986Z,4.60
2018-04-06T03:42:57.324Z,4.40
2018-04-06T03:45:26.548Z,4.60
2018-04-06T03:47:55.825Z,3.97
2018-04-06T03:50:25.092Z,4.43
2018-04-06T03:52:54.798Z,4.87
2018-04-06T03:55:24.039Z,5.03
2018-04-06T03:57:53.450Z,4.10
2018-04-06T04:00:22.675Z,4.40
2018-04-06T04:02:51.925Z,4.97
2018-04-06T04:05:21.189Z,4.97
2018-04-06T04:07:50.544Z,4.87
2018-04-06T04:10:19.771Z,4.07
2018-04-06T04:12:49.047Z,4.53
2018-04-06T04:15:18.305Z,4.30
2018-04-06T04:17:47.570Z,4.63
2018-04-06T04:20:16.835Z,4.67
2018-04-06T04:22:46.110Z,4.50
2018-04-06T04:25:15.425Z,4.00
2018-04-06T04:27:44.728Z,3.83
2018-04-06T04:30:13.948Z,4.57
2018-04-06T04:32:43.216Z,5.13
2018-04-06T04:35:12.623Z,4.83
2018-04-06T04:37:41.873Z,5.00
2018-04-06T04:40:11.101Z,4.47
2018-04-06T04:42:40.375Z,5.00
2018-04-06T04:45:09.726Z,5.40
2018-04-06T04:47:38.997Z,4.67
2018-04-06T04:50:08.255Z,5.00
2018-04-06T04:52:37.516Z,6.00
2018-04-06T04:55:06.752Z,4.77
2018-04-06T04:57:36.039Z,4.63
2018-04-06T05:00:05.294Z,4.43
2018-04-06T05:02:34.552Z,4.07
2018-04-06T05:05:03.868Z,4.30
2018-04-06T05:07:33.165Z,4.90
2018-04-06T05:10:02.542Z,5.43
2018-04-06T05:12:31.771Z,5.33
2018-04-06T05:15:01.099Z,4.57
2018-04-06T05:17:30.390Z,6.00
2018-04-06T05:19:59.699Z,5.77
2018-04-06T05:22:28.912Z,5.40
2018-04-06T05:24:58.118Z,5.30
2018-04-06T05:27:27.363Z,5.30
2018-04-06T05:29:56.625Z,5.57
2018-04-06T05:32:25.838Z,4.50
2018-04-06T05:34:55.059Z,4.87
2018-04-06T05:37:24.272Z,4.77
2018-04-06T05:39:53.588Z,5.77
2018-04-06T05:42:22.844Z,5.30
2018-04-06T05:44:52.063Z,5.30
2018-04-06T05:47:21.259Z,5.70
2018-04-06T05:49:50.635Z,5.83
2018-04-06T05:52:20.002Z,5.30
2018-04-06T05:54:49.384Z,5.47
2018-04-06T05:57:18.590Z,5.70
2018-04-06T05:59:47.796Z,5.40
2018-04-06T06:02:17.241Z,6.63
2018-04-06T06:04:47.350Z,6.83
2018-04-06T06:07:16.756Z,6.40
2018-04-06T06:09:46.025Z,6.67
2018-04-06T06:12:15.234Z,7.90
2018-04-06T06:14:44.549Z,6.97
2018-04-06T06:17:13.832Z,8.23
2018-04-06T06:19:43.107Z,7.53
2018-04-06T06:22:12.304Z,8.57
2018-04-06T06:24:41.517Z,7.70
2018-04-06T06:27:10.748Z,7.80
2018-04-06T06:29:39.958Z,8.60
2018-04-06T06:32:09.190Z,9.80
2018-04-06T06:34:38.388Z,10.07
2018-04-06T06:37:07.621Z,9.97
2018-04-06T06:39:36.825Z,9.50
2018-04-06T06:42:06.054Z,9.17
2018-04-06T06:44:35.284Z,10.37
2018-04-06T08:09:03.440Z,7.10
2018-04-06T08:11:32.637Z,7.20
2018-04-06T08:14:01.868Z,7.97
2018-04-06T08:16:31.052Z,7.97
2018-04-06T08:19:00.252Z,8.50
2018-04-06T08:21:29.435Z,7.90
2018-04-06T08:23:58.653Z,7.67
2018-04-06T08:26:27.991Z,7.83
2018-04-06T08:28:57.200Z,7.40
2018-04-06T08:31:26.442Z,8.10
2018-04-06T08:33:55.656Z,7.50
2018-04-06T08:36:24.849Z,8.10
2018-04-06T08:38:54.074Z,8.57
2018-04-06T08:41:23.263Z,8.30
2018-04-06T08:43:52.533Z,8.27
2018-04-06T08:46:21.774Z,7.67
2018-04-06T08:48:50.999Z,8.00
2018-04-06T08:51:20.198Z,7.90
2018-04-06T08:53:49.413Z,8.07
2018-04-06T08:56:18.607Z,7.90
2018-04-06T08:58:47.821Z,7.50
2018-04-06T09:01:17.137Z,7.80
2018-04-06T09:03:46.393Z,7.80
2018-04-06T09:06:15.579Z,6.80
2018-04-06T09:08:44.815Z,7.73
2018-04-06T09:11:14.004Z,7.20
2018-04-06T09:13:43.205Z,7.10
2018-04-06T09:16:12.388Z,6.83
2018-04-06T09:18:41.601Z,6.87
2018-04-06T09:21:10.786Z,5.80
2018-04-06T09:23:40.005Z,7.63
2018-04-06T09:26:09.211Z,6.23
2018-04-06T09:28:38.405Z,6.50
2018-04-06T09:31:07.631Z,5.20
2018-04-06T09:33:36.905Z,6.87
2018-04-06T09:36:06.106Z,6.17
2018-04-06T09:38:35.326Z,6.33
2018-04-06T09:41:04.536Z,6.80
2018-04-06T09:43:33.725Z,6.70
2018-04-06T09:46:02.932Z,6.30
2018-04-06T09:48:32.134Z,7.53
2018-04-06T09:51:01.325Z,6.33
2018-04-06T09:53:30.528Z,6.13
2018-04-06T09:55:59.777Z,5.40
2018-04-06T09:58:29.045Z,6.33
2018-04-06T10:00:58.365Z,6.97
2018-04-06T10:03:27.549Z,6.03
2018-04-06T10:05:56.765Z,6.33
2018-04-06T10:08:25.957Z,7.00
2018-04-06T10:10:55.171Z,6.50
2018-04-06T10:13:24.360Z,6.60
2018-04-06T10:15:53.569Z,6.00
2018-04-06T10:18:22.755Z,7.20
2018-04-06T10:20:51.984Z,6.73
2018-04-06T10:23:21.184Z,6.10
2018-04-06T10:25:50.420Z,6.13
2018-04-06T10:28:19.620Z,6.53
2018-04-06T10:30:48.952Z,6.10
2018-04-06T10:33:18.203Z,6.13
2018-04-06T10:35:47.388Z,5.67
2018-04-06T10:38:16.608Z,7.00
2018-04-06T10:40:45.810Z,6.10
2018-04-06T10:43:15.010Z,6.47
2018-04-06T10:45:44.232Z,5.73
2018-04-06T10:48:13.495Z,6.03
2018-04-06T10:50:42.712Z,6.20
2018-04-06T10:53:11.913Z,4.60
2018-04-06T10:55:41.128Z,5.13
2018-04-06T10:58:10.310Z,5.60
2018-04-06T11:00:39.503Z,5.30
2018-04-06T11:03:08.732Z,5.27
2018-04-06T11:05:37.943Z,4.80
2018-04-06T11:08:07.176Z,4.30
2018-04-06T11:10:36.365Z,5.80
2018-04-06T11:13:05.664Z,5.20
2018-04-06T11:15:34.858Z,5.50
2018-04-06T11:18:04.085Z,4.70
2018-04-06T11:20:33.275Z,5.30
2018-04-06T11:23:02.540Z,5.60
2018-04-06T11:25:31.774Z,5.70
2018-04-06T11:28:01.066Z,5.20
2018-04-06T11:30:30.285Z,5.10
2018-04-06T11:32:59.497Z,5.10
2018-04-06T11:35:28.688Z,5.03
2018-04-06T11:37:57.910Z,4.80
2018-04-06T11:40:27.090Z,4.83
2018-04-06T11:42:56.317Z,5.00
2018-04-06T11:45:25.534Z,5.60
2018-04-06T11:47:54.785Z,5.27
2018-04-06T11:50:24.038Z,5.37
2018-04-06T11:52:53.253Z,5.77
2018-04-06T11:55:22.434Z,5.30
2018-04-06T11:57:51.627Z,5.53
2018-04-06T12:00:20.826Z,4.97
2018-04-06T12:02:50.044Z,5.10
2018-04-06T12:05:19.241Z,5.70
2018-04-06T12:07:48.452Z,5.90
2018-04-06T12:10:17.677Z,5.30
2018-04-06T12:12:46.972Z,6.20
2018-04-06T12:15:16.152Z,5.87
2018-04-06T12:17:45.382Z,5.57
2018-04-06T12:20:14.561Z,6.50
2018-04-06T12:22:43.771Z,5.70
2018-04-06T12:25:12.959Z,5.97
2018-04-06T12:27:42.172Z,6.00
2018-04-06T12:30:11.356Z,5.70
2018-04-06T12:32:40.601Z,5.93
2018-04-06T12:35:09.799Z,6.43
2018-04-06T12:37:39.012Z,6.70
2018-04-06T12:40:08.189Z,5.60
2018-04-06T12:42:37.367Z,5.73
2018-04-06T12:45:06.632Z,6.00
2018-04-06T12:47:35.821Z,5.77
2018-04-06T12:50:05.083Z,7.03
2018-04-06T12:52:34.272Z,5.50
2018-04-06T12:55:03.521Z,6.70
2018-04-06T12:57:32.712Z,5.73
2018-04-06T13:00:01.923Z,6.53
2018-04-06T13:05:11.652Z,6.03
2018-04-06T13:07:39.196Z,5.97
2018-04-06T13:10:06.766Z,7.10
2018-04-06T13:12:34.313Z,6.30
2018-04-06T13:15:01.881Z,6.87
2018-04-06T13:17:29.422Z,7.90
2018-04-06T13:19:56.981Z,7.73
2018-04-06T13:22:24.531Z,7.07
2018-04-06T13:24:52.109Z,6.70
2018-04-06T13:27:19.653Z,6.47
2018-04-06T13:29:47.237Z,7.57
2018-04-06T13:32:14.809Z,6.03
2018-04-06T13:34:43.128Z,7.00
2018-04-06T13:37:10.677Z,6.83
2018-04-06T13:39:39.005Z,7.20
2018-04-06T13:42:06.561Z,8.13
2018-04-06T13:44:34.155Z,6.80
2018-04-06T13:47:01.708Z,7.17
2018-04-06T13:49:29.310Z,7.23
2018-04-06T13:51:56.846Z,6.67
2018-04-06T13:54:25.179Z,5.97
2018-04-06T13:56:52.745Z,6.70
2018-04-06T13:59:20.311Z,6.20
2018-04-06T14:01:47.885Z,6.07
2018-04-06T14:04:15.435Z,6.70
2018-04-06T14:06:43.216Z,6.20
2018-04-06T14:09:10.752Z,7.43
2018-04-06T14:11:38.313Z,6.70
2018-04-06T14:14:05.858Z,7.33
2018-04-06T14:16:34.230Z,6.10
2018-04-06T14:19:02.545Z,5.60
2018-04-06T14:21:30.733Z,5.80
2018-04-06T14:23:58.276Z,6.47
2018-04-06T14:26:25.824Z,6.50
2018-04-06T14:28:53.358Z,5.60
2018-04-06T14:31:21.702Z,5.87
2018-04-06T14:33:49.250Z,5.33
2018-04-06T14:36:16.815Z,5.90
2018-04-06T14:38:44.394Z,5.93
2018-04-06T14:41:11.933Z,5.83
2018-04-06T14:43:39.503Z,5.77
2018-04-06T14:46:07.084Z,5.17
2018-04-06T14:48:35.407Z,5.83
2018-04-06T14:51:03.071Z,5.57
2018-04-06T14:53:30.613Z,4.67
2018-04-06T14:55:58.165Z,6.53
2018-04-06T14:58:25.709Z,5.70
2018-04-06T15:00:53.296Z,5.30
2018-04-06T15:03:20.835Z,5.50
2018-04-06T15:05:49.132Z,5.87
2018-04-06T15:08:16.721Z,5.63
2018-04-06T15:10:44.273Z,5.30
2018-04-06T15:13:11.827Z,4.83
2018-04-06T15:15:39.408Z,4.77
2018-04-06T15:18:07.040Z,5.90
2018-04-06T15:20:34.574Z,5.90
2018-04-06T15:23:02.205Z,4.93
2018-04-06T15:25:29.814Z,5.53
2018-04-06T15:27:57.487Z,5.27
2018-04-06T15:30:25.030Z,5.50
2018-04-06T15:32:52.612Z,6.23
2018-04-06T15:35:20.154Z,5.67
2018-04-06T15:37:47.770Z,5.07
2018-04-06T15:40:16.069Z,5.07
2018-04-06T15:42:44.476Z,5.70
2018-04-06T15:45:12.048Z,5.70
2018-04-06T15:47:39.636Z,6.03
2018-04-06T15:50:07.181Z,6.30
2018-04-06T15:52:34.754Z,6.20
2018-04-06T15:55:02.340Z,5.70
2018-04-06T15:57:29.905Z,5.77
2018-04-06T15:59:57.486Z,5.60
2018-04-06T16:02:25.828Z,6.27
2018-04-06T16:04:53.368Z,6.20
2018-04-06T16:07:21.001Z,6.10
2018-04-06T16:09:48.562Z,7.07
2018-04-06T16:12:16.102Z,6.40
2018-04-06T16:14:43.724Z,5.87
2018-04-06T16:17:11.300Z,5.63
2018-04-06T16:19:38.862Z,5.50
2018-04-06T16:22:06.416Z,7.00
2018-04-06T16:24:33.996Z,6.30
2018-04-06T16:27:01.552Z,6.70
2018-04-06T16:29:29.164Z,6.23
2018-04-06T16:31:56.827Z,6.10
2018-04-06T16:34:24.404Z,6.27
2018-04-06T16:36:51.945Z,6.30
2018-04-06T16:39:19.543Z,6.70
2018-04-06T16:41:47.084Z,6.43
2018-04-06T16:44:14.656Z,5.97
2018-04-06T16:46:42.219Z,7.10
2018-04-06T16:49:09.796Z,6.03
2018-04-06T16:51:38.110Z,5.80
2018-04-06T16:54:05.672Z,6.53
2018-04-06T16:56:33.209Z,6.97
2018-04-06T16:59:01.913Z,6.70
2018-04-06T17:01:29.474Z,7.40
2018-04-06T17:03:57.048Z,7.10
2018-04-06T17:06:24.655Z,6.47
2018-04-06T17:08:52.238Z,7.33
2018-04-06T17:11:19.773Z,6.33
2018-04-06T17:13:47.389Z,6.03
2018-04-06T17:16:15.709Z,6.57
2018-04-06T17:18:44.911Z,6.67
2018-04-06T17:21:14.127Z,6.33
2018-04-06T17:23:43.439Z,6.20
2018-04-06T17:26:12.645Z,6.60
2018-04-06T17:28:41.870Z,6.40
2018-04-06T17:31:11.057Z,5.93
2018-04-06T17:33:40.259Z,6.50
2018-04-06T17:36:09.472Z,6.03
2018-04-06T17:38:38.691Z,5.90
2018-04-06T17:41:07.893Z,5.97
2018-04-06T17:43:39.565Z,5.33
2018-04-06T17:46:08.777Z,6.43
2018-04-06T17:48:38.000Z,6.03
2018-04-06T17:51:07.202Z,7.40
2018-04-06T17:53:36.401Z,5.80
2018-04-06T17:56:05.636Z,8.03
2018-04-06T17:58:34.851Z,7.10
2018-04-06T18:01:04.065Z,7.13
2018-04-06T18:03:33.263Z,7.00
2018-04-06T18:06:02.461Z,6.77
2018-04-06T18:08:31.665Z,5.97
2018-04-06T18:11:01.025Z,7.47
2018-04-06T18:13:30.231Z,6.47
2018-04-06T18:15:59.476Z,7.10
2018-04-06T18:18:28.676Z,6.57
2018-04-06T18:20:57.896Z,7.60
2018-04-06T18:23:27.094Z,7.03
2018-04-06T18:25:56.352Z,7.20
2018-04-06T18:28:25.557Z,6.70
2018-04-06T18:30:54.757Z,6.90
2018-04-06T18:33:23.990Z,7.50
2018-04-06T18:35:53.196Z,6.80
2018-04-06T18:38:22.386Z,7.23
2018-04-06T18:40:51.601Z,7.17
2018-04-06T18:43:20.780Z,7.53
2018-04-06T18:45:49.988Z,7.57
2018-04-06T18:48:19.228Z,8.57
2018-04-06T18:50:48.422Z,7.67
2018-04-06T18:53:17.620Z,9.20
2018-04-06T18:55:47.089Z,8.13
2018-04-06T18:58:16.320Z,7.63
2018-04-06T19:00:45.547Z,7.60
2018-04-06T19:03:14.830Z,7.57
2018-04-06T19:05:44.052Z,8.47
2018-04-06T19:08:13.257Z,7.67
2018-04-06T19:10:42.512Z,7.63
2018-04-06T19:13:11.803Z,7.90
2018-04-06T19:15:41.019Z,7.53
2018-04-06T19:18:10.224Z,7.80
2018-04-06T19:20:39.551Z,7.60
2018-04-06T19:23:08.768Z,8.67
2018-04-06T19:25:37.960Z,6.80
2018-04-06T19:28:07.184Z,7.70
2018-04-06T19:30:36.451Z,7.60
2018-04-06T19:33:05.700Z,7.30
2018-04-06T19:35:35.716Z,7.30
2018-04-06T19:38:04.974Z,8.10
2018-04-06T19:40:34.178Z,7.70
2018-04-06T19:43:03.428Z,7.00
2018-04-06T19:45:32.615Z,7.40
2018-04-06T19:48:01.845Z,6.37
2018-04-06T19:50:31.239Z,8.10
2018-04-06T19:53:00.448Z,7.20
2018-04-06T19:55:29.649Z,7.50
2018-04-06T19:57:59.336Z,7.00
2018-04-06T20:00:28.641Z,7.73
2018-04-06T20:02:58.136Z,7.33
2018-04-06T20:05:27.347Z,7.30
2018-04-06T20:07:56.544Z,6.90
2018-04-06T20:10:25.712Z,6.80
2018-04-06T20:12:54.943Z,6.20
2018-04-06T20:15:24.165Z,7.20
2018-04-06T20:17:53.391Z,7.93
2018-04-06T20:20:22.595Z,6.90
2018-04-06T20:22:51.825Z,7.37
2018-04-06T20:25:21.174Z,7.00
2018-04-06T20:27:50.393Z,8.33
2018-04-06T20:30:19.655Z,6.97
2018-04-06T20:32:48.862Z,7.27
2018-04-06T20:35:18.087Z,7.73
2018-04-06T20:37:47.306Z,7.00
2018-04-06T20:40:16.503Z,7.53
2018-04-06T20:42:45.709Z,8.17
2018-04-06T20:45:14.903Z,7.80
2018-04-06T20:47:44.100Z,7.40
2018-04-06T20:50:13.299Z,7.70
2018-04-06T20:52:42.533Z,7.70
2018-04-06T20:55:11.766Z,7.23
2018-04-06T20:57:41.011Z,8.07
2018-04-06T21:00:10.196Z,8.83
2018-04-06T21:02:39.395Z,8.20
2018-04-06T21:05:08.607Z,10.07
2018-04-06T21:07:37.824Z,8.47
2018-04-06T21:10:07.034Z,7.90
2018-04-06T21:12:36.218Z,8.50
2018-04-06T21:15:05.406Z,8.73
2018-04-06T21:17:34.620Z,8.03
2018-04-06T21:20:03.812Z,8.40
2018-04-06T21:22:33.052Z,7.50
2018-04-06T21:25:02.297Z,8.30
2018-04-06T21:27:32.726Z,7.77
2018-04-06T21:30:03.433Z,8.03
2018-04-06T21:32:35.481Z,8.73
2018-04-06T21:35:05.410Z,7.90
2018-04-06T21:37:34.834Z,8.47
2018-04-06T21:40:10.134Z,7.97
2018-04-06T21:42:39.436Z,8.10
2018-04-06T21:45:08.703Z,7.90
2018-04-06T21:47:40.722Z,7.70
2018-04-06T21:50:10.194Z,7.60
2018-04-06T21:52:39.428Z,8.10
2018-04-06T21:55:14.789Z,7.97
2018-04-06T21:57:44.026Z,9.13
2018-04-06T22:00:15.218Z,7.57
2018-04-06T22:02:44.460Z,7.87
2018-04-06T22:05:14.200Z,7.93
2018-04-06T22:07:51.999Z,9.67
2018-04-06T22:10:22.116Z,10.87
2018-04-06T22:12:51.468Z,12.83
2018-04-06T22:15:20.742Z,12.90
2018-04-06T22:17:49.992Z,13.10
2018-04-06T22:20:19.253Z,13.87
2018-04-06T22:22:48.621Z,12.27
2018-04-06T22:25:17.928Z,11.17
2018-04-06T22:27:47.126Z,9.93
2018-04-06T22:30:16.381Z,8.40
2018-04-06T22:32:45.698Z,9.27
2018-04-06T22:35:14.958Z,9.47
2018-04-06T22:37:44.647Z,7.80
2018-04-06T22:40:13.899Z,8.50
2018-04-06T22:42:43.140Z,8.53
2018-04-06T22:45:12.368Z,7.60
2018-04-06T22:47:41.565Z,8.30
2018-04-06T22:50:10.817Z,9.07
2018-04-06T22:52:40.909Z,8.07
2018-04-06T22:55:10.425Z,8.80
2018-04-06T22:57:39.678Z,8.50
2018-04-06T23:00:08.905Z,7.97
2018-04-06T23:02:38.119Z,9.53
2018-04-06T23:05:07.482Z,8.70
2018-04-06T23:07:36.723Z,9.30
2018-04-06T23:10:05.956Z,9.47
2018-04-06T23:12:35.258Z,8.20
2018-04-06T23:15:04.492Z,8.83
2018-04-06T23:17:33.807Z,9.70
2018-04-06T23:20:03.041Z,8.47
2018-04-06T23:22:32.334Z,9.07
2018-04-06T23:25:01.580Z,8.17
2018-04-06T23:27:30.803Z,10.00
2018-04-06T23:30:00.057Z,8.30
2018-04-06T23:32:29.290Z,8.93
2018-04-06T23:34:58.481Z,8.37
2018-04-06T23:37:27.757Z,8.87
2018-04-06T23:39:57.011Z,8.47
2018-04-06T23:42:26.233Z,8.50
2018-04-06T23:44:55.465Z,9.30
2018-04-06T23:47:24.735Z,8.67
2018-04-06T23:49:54.014Z,9.07
2018-04-06T23:52:23.240Z,8.57
2018-04-06T23:54:52.464Z,8.50
2018-04-06T23:57:21.697Z,8.50
2018-04-06T23:59:50.976Z,9.07
